createdAt,value
2023-01-17T00:00:13.641Z,-2.93
2023-01-17T00:02:41.850Z,-2.92
2023-01-17T00:05:28.208Z,-2.93
2023-01-17T00:08:15.384Z,-2.92
2023-01-17T00:10:43.387Z,-2.94
2023-01-17T00:13:11.506Z,-2.95
2023-01-17T00:15:40.137Z,-2.99
2023-01-17T00:18:08.239Z,-2.98
2023-01-17T00:20:53.672Z,-2.99
2023-01-17T00:23:56.783Z,-3.00
2023-01-17T00:26:25.179Z,-3.02
2023-01-17T00:28:51.997Z,-3.04
2023-01-17T00:31:18.928Z,-3.05
2023-01-17T00:33:45.813Z,-3.04
2023-01-17T00:36:12.769Z,-3.01
2023-01-17T00:38:42.360Z,-2.96
2023-01-17T00:41:10.892Z,-2.93
2023-01-17T00:43:56.349Z,-2.89
2023-01-17T00:46:41.761Z,-2.88
2023-01-17T00:49:27.372Z,-2.90
2023-01-17T00:52:13.307Z,-2.88
2023-01-17T00:55:00.443Z,-2.89
2023-01-17T00:57:46.288Z,-2.90
2023-01-17T01:00:32.892Z,-2.93
2023-01-17T01:03:18.408Z,-2.94
2023-01-17T01:06:03.981Z,-2.96
2023-01-17T01:08:49.723Z,-2.95
2023-01-17T01:11:38.764Z,-2.97
2023-01-17T01:14:25.864Z,-2.92
2023-01-17T01:17:11.238Z,-2.91
2023-01-17T01:19:56.740Z,-2.94
2023-01-17T01:22:42.238Z,-2.94
2023-01-17T01:25:27.634Z,-2.98
2023-01-17T01:28:23.864Z,-3.02
2023-01-17T01:31:09.458Z,-3.07
2023-01-17T01:33:37.565Z,-3.08
2023-01-17T01:36:09.247Z,-3.06
2023-01-17T01:38:37.656Z,-3.04
2023-01-17T01:41:06.563Z,-3.02
2023-01-17T01:43:46.128Z,-3.00
2023-01-17T01:46:17.989Z,-2.96
2023-01-17T01:48:52.648Z,-2.95
2023-01-17T01:51:26.893Z,-2.93
2023-01-17T01:54:00.977Z,-2.92
2023-01-17T01:56:30.572Z,-2.93
2023-01-17T01:59:04.304Z,-2.94
2023-01-17T02:01:32.915Z,-2.98
2023-01-17T02:04:01.261Z,-3.06
2023-01-17T02:06:33.724Z,-3.06
2023-01-17T02:09:05.192Z,-3.07
2023-01-17T02:11:34.022Z,-3.06
2023-01-17T02:14:03.414Z,-3.04
2023-01-17T02:16:44.528Z,-3.03
2023-01-17T02:19:36.407Z,-3.05
2023-01-17T02:22:21.454Z,-3.02
2023-01-17T02:25:10.798Z,-3.03
2023-01-17T02:27:55.308Z,-3.06
2023-01-17T02:30:34.444Z,-3.07
2023-01-17T02:33:07.837Z,-3.08
2023-01-17T02:35:43.497Z,-3.10
2023-01-17T02:38:24.238Z,-3.12
2023-01-17T02:40:59.126Z,-3.12
2023-01-17T02:43:27.445Z,-3.16
2023-01-17T02:45:56.841Z,-3.17
2023-01-17T02:48:29.335Z,-3.17
2023-01-17T02:51:21.438Z,-3.17
2023-01-17T02:54:12.363Z,-3.16
2023-01-17T02:56:49.819Z,-3.19
2023-01-17T02:59:35.876Z,-3.20
2023-01-17T03:02:18.211Z,-3.22
2023-01-17T03:04:52.529Z,-3.27
2023-01-17T03:07:25.447Z,-3.30
2023-01-17T03:09:59.479Z,-3.30
2023-01-17T03:12:29.403Z,-3.33
2023-01-17T03:14:57.174Z,-3.33
2023-01-17T03:17:31.116Z,-3.32
2023-01-17T03:19:59.183Z,-3.33
2023-01-17T03:22:27.365Z,-3.36
2023-01-17T03:24:55.365Z,-3.40
2023-01-17T03:27:23.374Z,-3.41
2023-01-17T03:29:51.384Z,-3.42
2023-01-17T03:32:19.395Z,-3.41
2023-01-17T03:34:48.893Z,-3.40
2023-01-17T03:37:17.037Z,-3.36
2023-01-17T03:39:45.051Z,-3.34
2023-01-17T03:42:13.251Z,-3.37
2023-01-17T03:44:41.348Z,-3.37
2023-01-17T03:47:12.134Z,-3.39
2023-01-17T03:49:40.744Z,-3.39
2023-01-17T03:52:10.131Z,-3.38
2023-01-17T03:54:38.333Z,-3.33
2023-01-17T03:57:06.355Z,-3.34
2023-01-17T03:59:34.413Z,-3.36
2023-01-17T04:02:03.945Z,-3.37
2023-01-17T04:04:32.151Z,-3.30
2023-01-17T04:07:00.138Z,-3.27
2023-01-17T04:09:33.992Z,-3.25
2023-01-17T04:12:02.305Z,-3.23
2023-01-17T04:14:30.500Z,-3.22
2023-01-17T04:16:58.730Z,-3.24
2023-01-17T04:19:26.894Z,-3.25
2023-01-17T04:21:54.900Z,-3.28
2023-01-17T04:24:23.889Z,-3.28
2023-01-17T04:26:53.868Z,-3.30
2023-01-17T04:29:21.675Z,-3.30
2023-01-17T04:31:49.828Z,-3.27
2023-01-17T04:34:17.873Z,-3.24
2023-01-17T04:36:46.831Z,-3.26
2023-01-17T04:39:14.861Z,-3.26
2023-01-17T04:41:43.976Z,-3.26
2023-01-17T04:44:13.349Z,-3.26
2023-01-17T04:46:41.437Z,-3.28
2023-01-17T04:49:09.499Z,-3.30
2023-01-17T04:51:37.627Z,-3.31
2023-01-17T04:54:05.802Z,-3.32
2023-01-17T04:56:34.071Z,-3.33
2023-01-17T04:59:02.109Z,-3.33
2023-01-17T05:01:31.653Z,-3.34
2023-01-17T05:03:59.886Z,-3.33
2023-01-17T05:06:30.037Z,-3.28
2023-01-17T05:08:58.183Z,-3.26
2023-01-17T05:11:26.254Z,-3.23
2023-01-17T05:13:54.296Z,-3.21
2023-01-17T05:16:22.369Z,-3.22
2023-01-17T05:18:53.866Z,-3.21
2023-01-17T05:21:22.678Z,-3.22
2023-01-17T05:23:50.805Z,-3.23
2023-01-17T05:26:18.801Z,-3.23
2023-01-17T05:28:46.820Z,-3.22
2023-01-17T05:31:14.942Z,-3.18
2023-01-17T05:33:43.236Z,-3.20
2023-01-17T05:36:12.748Z,-3.23
2023-01-17T05:38:40.796Z,-3.25
2023-01-17T05:41:08.871Z,-3.25
2023-01-17T05:43:36.838Z,-3.26
2023-01-17T05:46:04.901Z,-3.26
2023-01-17T05:48:32.951Z,-3.26
2023-01-17T05:51:01.760Z,-3.25
2023-01-17T05:53:31.273Z,-3.27
2023-01-17T05:55:59.240Z,-3.26
2023-01-17T05:58:27.367Z,-3.29
2023-01-17T06:00:57.337Z,-3.31
2023-01-17T06:03:25.213Z,-3.32
2023-01-17T06:05:53.225Z,-3.35
2023-01-17T06:08:23.524Z,-3.38
2023-01-17T06:10:53.012Z,-3.41
2023-01-17T06:13:22.119Z,-3.37
2023-01-17T06:15:50.251Z,-3.36
2023-01-17T06:18:19.489Z,-3.35
2023-01-17T06:20:47.511Z,-3.36
2023-01-17T06:23:16.240Z,-3.41
2023-01-17T06:25:45.512Z,-3.40
2023-01-17T06:28:22.281Z,-3.42
2023-01-17T06:30:51.437Z,-3.43
2023-01-17T06:33:19.464Z,-3.49
2023-01-17T06:35:51.051Z,-3.52
2023-01-17T06:38:19.598Z,-3.53
2023-01-17T06:40:47.913Z,-3.59
2023-01-17T06:43:21.837Z,-3.57
2023-01-17T06:45:51.297Z,-3.57
2023-01-17T06:48:19.752Z,-3.60
2023-01-17T06:51:02.863Z,-3.62
2023-01-17T06:53:30.892Z,-3.64
2023-01-17T06:55:59.022Z,-3.63
2023-01-17T06:58:28.467Z,-3.64
2023-01-17T07:00:56.537Z,-3.65
2023-01-17T07:03:26.228Z,-3.64
2023-01-17T07:05:54.569Z,-3.65
2023-01-17T07:08:22.592Z,-3.68
2023-01-17T07:10:50.770Z,-3.69
2023-01-17T07:13:18.855Z,-3.73
2023-01-17T07:15:48.445Z,-3.75
2023-01-17T07:18:20.610Z,-3.75
2023-01-17T07:20:49.124Z,-3.74
2023-01-17T07:23:17.659Z,-3.76
2023-01-17T07:25:45.722Z,-3.75
2023-01-17T07:28:13.740Z,-3.74
2023-01-17T07:33:36.047Z,-3.73
2023-01-17T07:36:07.744Z,-3.75
2023-01-17T07:38:35.848Z,-3.75
2023-01-17T07:41:04.091Z,-3.74
2023-01-17T07:43:32.169Z,-3.76
2023-01-17T07:46:02.085Z,-3.76
2023-01-17T07:48:32.083Z,-3.74
2023-01-17T07:51:01.607Z,-3.75
2023-01-17T07:53:33.511Z,-3.75
2023-01-17T07:56:02.629Z,-3.78
2023-01-17T07:58:30.839Z,-3.81
2023-01-17T08:01:03.026Z,-3.83
2023-01-17T08:03:32.563Z,-3.84
2023-01-17T08:06:04.174Z,-3.86
2023-01-17T08:08:32.189Z,-3.87
2023-01-17T08:11:00.202Z,-3.87
2023-01-17T08:13:29.867Z,-3.88
2023-01-17T08:15:58.010Z,-3.89
2023-01-17T08:18:26.065Z,-3.90
2023-01-17T08:20:54.280Z,-3.95
2023-01-17T08:23:24.046Z,-3.93
2023-01-17T08:25:52.089Z,-3.93
2023-01-17T08:28:20.917Z,-3.91
2023-01-17T08:30:48.933Z,-3.89
2023-01-17T08:33:17.235Z,-3.88
2023-01-17T08:35:52.673Z,-3.85
2023-01-17T08:38:21.024Z,-3.81
2023-01-17T08:40:50.491Z,-3.82
2023-01-17T08:43:18.939Z,-3.81
2023-01-17T08:45:48.359Z,-3.82
2023-01-17T08:48:16.776Z,-3.82
2023-01-17T08:50:44.805Z,-3.82
2023-01-17T08:53:12.870Z,-3.81
2023-01-17T08:55:43.836Z,-3.72
2023-01-17T08:58:13.913Z,-3.66
2023-01-17T09:00:41.945Z,-3.65
2023-01-17T09:03:14.361Z,-3.60
2023-01-17T09:05:42.466Z,-3.55
2023-01-17T09:08:10.428Z,-3.53
2023-01-17T09:10:38.445Z,-3.51
2023-01-17T09:13:08.029Z,-3.51
2023-01-17T09:15:37.773Z,-3.48
2023-01-17T09:18:05.814Z,-3.42
2023-01-17T09:20:33.854Z,-3.39
2023-01-17T09:23:03.587Z,-3.37
2023-01-17T09:25:32.006Z,-3.33
2023-01-17T09:27:59.981Z,-3.28
2023-01-17T09:30:28.062Z,-3.25
2023-01-17T09:32:57.501Z,-3.20
2023-01-17T09:35:25.570Z,-3.16
2023-01-17T09:37:54.635Z,-3.10
2023-01-17T09:40:26.051Z,-3.06
2023-01-17T09:43:03.743Z,-3.01
2023-01-17T09:45:33.534Z,-2.95
2023-01-17T09:48:07.950Z,-2.90
2023-01-17T09:50:45.173Z,-2.86
2023-01-17T09:53:21.779Z,-2.80
2023-01-17T09:55:58.413Z,-2.73
2023-01-17T09:58:35.653Z,-2.69
2023-01-17T10:01:12.571Z,-2.61
2023-01-17T10:03:57.234Z,-2.56
2023-01-17T10:06:43.667Z,-2.52
2023-01-17T10:09:35.215Z,-2.44
2023-01-17T10:12:40.002Z,-2.37
2023-01-17T10:15:37.273Z,-2.30
2023-01-17T10:18:30.016Z,-2.25
2023-01-17T10:21:07.334Z,-2.20
2023-01-17T10:24:04.832Z,-2.16
2023-01-17T10:26:35.748Z,-2.11
2023-01-17T10:29:13.914Z,-2.07
2023-01-17T10:31:46.350Z,-2.01
2023-01-17T10:34:18.416Z,-1.96
2023-01-17T10:36:54.032Z,-1.92
2023-01-17T10:39:24.698Z,-1.86
2023-01-17T10:41:58.922Z,-1.80
2023-01-17T10:44:34.497Z,-1.75
2023-01-17T10:47:20.044Z,-1.69
2023-01-17T10:49:53.117Z,-1.63
2023-01-17T10:52:34.600Z,-1.56
2023-01-17T10:55:18.023Z,-1.52
2023-01-17T10:57:48.414Z,-1.49
2023-01-17T11:00:44.035Z,-1.46
2023-01-17T11:03:13.700Z,-1.40
2023-01-17T11:05:42.998Z,-1.36
2023-01-17T11:08:14.369Z,-1.30
2023-01-17T11:10:49.886Z,-1.27
2023-01-17T11:13:25.618Z,-1.20
2023-01-17T11:15:57.901Z,-1.17
2023-01-17T11:18:29.223Z,-1.11
2023-01-17T11:21:12.236Z,-1.06
2023-01-17T11:23:43.588Z,-0.97
2023-01-17T11:26:21.829Z,-0.88
2023-01-17T11:28:51.926Z,-0.80
2023-01-17T11:31:26.756Z,-0.74
2023-01-17T11:34:15.961Z,-0.64
2023-01-17T11:36:44.661Z,-0.58
2023-01-17T11:39:28.478Z,-0.55
2023-01-17T11:41:57.022Z,-0.53
2023-01-17T11:44:27.770Z,-0.50
2023-01-17T11:47:19.092Z,-0.44
2023-01-17T11:49:48.477Z,-0.38
2023-01-17T11:52:24.861Z,-0.32
2023-01-17T11:54:56.429Z,-0.26
2023-01-17T11:57:27.330Z,-0.21
2023-01-17T12:00:04.735Z,-0.16
2023-01-17T12:03:04.913Z,-0.09
2023-01-17T12:05:41.875Z,-0.06
2023-01-17T12:08:23.375Z,-0.03
2023-01-17T12:11:03.717Z,0.04
2023-01-17T12:14:03.377Z,0.08
2023-01-17T12:16:52.299Z,0.13
2023-01-17T12:19:36.697Z,0.21
2023-01-17T12:22:21.591Z,0.22
2023-01-17T12:25:15.072Z,0.27
2023-01-17T12:27:54.464Z,0.34
2023-01-17T12:30:48.385Z,0.38
2023-01-17T12:33:26.934Z,0.43
2023-01-17T12:35:58.063Z,0.46
2023-01-17T12:38:33.414Z,0.51
2023-01-17T12:41:07.191Z,0.56
2023-01-17T12:43:40.674Z,0.61
2023-01-17T12:46:17.117Z,0.68
2023-01-17T12:48:46.338Z,0.74
2023-01-17T12:51:18.537Z,0.79
2023-01-17T12:53:57.327Z,0.84
2023-01-17T12:56:31.454Z,0.88
2023-01-17T12:59:12.385Z,0.91
2023-01-17T13:01:43.220Z,0.97
2023-01-17T13:04:19.826Z,1.01
2023-01-17T13:06:57.911Z,1.06
2023-01-17T13:09:28.146Z,1.11
2023-01-17T13:12:02.253Z,1.15
2023-01-17T13:14:32.943Z,1.22
2023-01-17T13:17:11.478Z,1.32
2023-01-17T13:19:45.830Z,1.40
2023-01-17T13:22:18.629Z,1.49
2023-01-17T13:24:56.544Z,1.55
2023-01-17T13:27:36.650Z,1.65
2023-01-17T13:30:23.859Z,1.71
2023-01-17T13:33:17.659Z,1.79
2023-01-17T13:35:58.303Z,1.88
2023-01-17T13:38:45.233Z,1.96
2023-01-17T13:41:26.720Z,2.06
2023-01-17T13:44:14.017Z,2.09
2023-01-17T13:47:01.420Z,2.18
2023-01-17T13:49:44.824Z,2.23
2023-01-17T13:52:33.256Z,2.29
2023-01-17T13:55:03.187Z,2.31
2023-01-17T13:57:43.925Z,2.34
2023-01-17T14:00:51.741Z,2.40
2023-01-17T14:03:53.040Z,2.42
2023-01-17T14:06:45.441Z,2.50
2023-01-17T14:09:20.303Z,2.54
2023-01-17T14:11:54.409Z,2.57
2023-01-17T14:14:56.998Z,2.58
2023-01-17T14:17:55.857Z,2.59
2023-01-17T14:21:05.717Z,2.62
2023-01-17T14:24:08.758Z,2.64
2023-01-17T14:26:51.714Z,2.62
2023-01-17T14:29:47.783Z,2.67
2023-01-17T14:32:18.651Z,2.72
2023-01-17T14:34:48.978Z,2.74
2023-01-17T14:37:39.774Z,2.70
2023-01-17T14:40:20.537Z,2.70
2023-01-17T14:42:59.492Z,2.73
2023-01-17T14:45:32.027Z,2.76
2023-01-17T14:48:02.359Z,2.78
2023-01-17T14:50:36.409Z,2.79
2023-01-17T14:53:09.570Z,2.85
2023-01-17T14:55:38.043Z,2.88
2023-01-17T14:58:07.577Z,2.84
2023-01-17T15:00:40.737Z,2.81
2023-01-17T15:03:12.520Z,2.81
2023-01-17T15:05:43.983Z,2.79
2023-01-17T15:08:12.987Z,2.76
2023-01-17T15:10:49.663Z,2.78
2023-01-17T15:13:32.472Z,2.77
2023-01-17T15:16:06.458Z,2.75
2023-01-17T15:18:39.997Z,2.71
2023-01-17T15:21:13.480Z,2.66
2023-01-17T15:23:47.050Z,2.60
2023-01-17T15:26:17.041Z,2.55
2023-01-17T15:28:47.132Z,2.51
2023-01-17T15:31:16.740Z,2.47
2023-01-17T15:33:47.071Z,2.39
2023-01-17T15:36:24.973Z,2.36
2023-01-17T15:38:57.803Z,2.29
2023-01-17T15:41:28.088Z,2.24
2023-01-17T15:43:58.853Z,2.21
2023-01-17T15:46:32.055Z,2.14
2023-01-17T15:49:26.768Z,2.07
2023-01-17T15:51:56.769Z,2.03
2023-01-17T15:54:26.904Z,1.96
2023-01-17T15:57:08.325Z,1.93
2023-01-17T15:59:47.531Z,1.85
2023-01-17T16:02:36.787Z,1.79
2023-01-17T16:05:21.858Z,1.71
2023-01-17T16:07:51.083Z,1.65
2023-01-17T16:10:20.747Z,1.59
2023-01-17T16:12:49.778Z,1.52
2023-01-17T16:15:22.531Z,1.47
2023-01-17T16:17:53.456Z,1.40
2023-01-17T16:20:25.406Z,1.35
2023-01-17T16:22:53.693Z,1.28
2023-01-17T16:25:24.052Z,1.25
2023-01-17T16:27:53.551Z,1.18
2023-01-17T16:30:23.551Z,1.10
2023-01-17T16:32:52.651Z,1.02
2023-01-17T16:35:22.225Z,0.97
2023-01-17T16:37:51.322Z,0.90
2023-01-17T16:40:34.505Z,0.84
2023-01-17T16:43:02.715Z,0.76
2023-01-17T16:45:32.212Z,0.69
2023-01-17T16:48:00.274Z,0.61
2023-01-17T16:50:28.598Z,0.56
2023-01-17T16:52:59.442Z,0.52
2023-01-17T16:55:28.020Z,0.44
2023-01-17T16:57:58.154Z,0.38
2023-01-17T17:00:26.959Z,0.36
2023-01-17T17:02:56.419Z,0.33
2023-01-17T17:05:26.042Z,0.25
2023-01-17T17:07:54.449Z,0.25
2023-01-17T17:10:25.322Z,0.21
2023-01-17T17:12:53.394Z,0.19
2023-01-17T17:15:21.804Z,0.13
2023-01-17T17:17:51.214Z,0.07
2023-01-17T17:20:20.735Z,0.04
2023-01-17T17:22:51.873Z,0.01
2023-01-17T17:25:20.138Z,-0.07
2023-01-17T17:27:48.436Z,-0.11
2023-01-17T17:30:16.805Z,-0.14
2023-01-17T17:32:47.770Z,-0.17
2023-01-17T17:35:16.006Z,-0.17
2023-01-17T17:37:45.425Z,-0.24
2023-01-17T17:40:13.745Z,-0.29
2023-01-17T17:42:43.587Z,-0.33
2023-01-17T17:45:12.270Z,-0.35
2023-01-17T17:47:40.296Z,-0.37
2023-01-17T17:50:09.692Z,-0.40
2023-01-17T17:52:38.232Z,-0.44
2023-01-17T17:55:08.647Z,-0.45
2023-01-17T17:57:36.721Z,-0.46
2023-01-17T18:00:05.432Z,-0.47
2023-01-17T18:02:34.872Z,-0.49
2023-01-17T18:05:03.975Z,-0.54
2023-01-17T18:07:33.365Z,-0.58
2023-01-17T18:10:01.416Z,-0.58
2023-01-17T18:12:31.651Z,-0.60
2023-01-17T18:14:59.909Z,-0.58
2023-01-17T18:17:28.245Z,-0.57
2023-01-17T18:19:56.915Z,-0.57
2023-01-17T18:22:25.001Z,-0.59
2023-01-17T18:24:53.017Z,-0.60
2023-01-17T18:27:21.152Z,-0.64
2023-01-17T18:29:50.939Z,-0.69
2023-01-17T18:32:19.167Z,-0.73
2023-01-17T18:34:47.600Z,-0.76
2023-01-17T18:37:15.721Z,-0.79
2023-01-17T18:39:43.881Z,-0.76
2023-01-17T18:42:12.778Z,-0.81
2023-01-17T18:44:40.853Z,-0.83
2023-01-17T18:47:13.158Z,-0.84
2023-01-17T18:49:41.369Z,-0.88
2023-01-17T18:52:09.612Z,-0.91
2023-01-17T18:54:37.852Z,-0.91
2023-01-17T18:57:05.856Z,-0.96
2023-01-17T18:59:33.846Z,-0.93
2023-01-17T19:02:01.919Z,-0.98
2023-01-17T19:04:34.041Z,-0.97
2023-01-17T19:07:02.125Z,-0.96
2023-01-17T19:09:32.182Z,-1.00
2023-01-17T19:12:00.153Z,-1.01
2023-01-17T19:14:28.133Z,-1.01
2023-01-17T19:16:57.252Z,-1.00
2023-01-17T19:19:25.426Z,-1.03
2023-01-17T19:21:54.951Z,-0.99
2023-01-17T19:24:22.974Z,-0.97
2023-01-17T19:26:53.289Z,-0.98
2023-01-17T19:29:22.648Z,-1.00
2023-01-17T19:31:50.841Z,-0.96
2023-01-17T19:34:20.367Z,-0.98
2023-01-17T19:36:48.473Z,-0.96
2023-01-17T19:39:17.997Z,-0.95
2023-01-17T19:41:46.817Z,-0.91
2023-01-17T19:44:17.647Z,-0.92
2023-01-17T19:46:46.210Z,-0.92
2023-01-17T19:49:16.482Z,-0.95
2023-01-17T19:51:44.735Z,-0.93
2023-01-17T19:54:15.276Z,-0.89
2023-01-17T19:56:44.705Z,-0.87
2023-01-17T19:59:13.948Z,-0.88
2023-01-17T20:01:42.175Z,-0.88
2023-01-17T20:04:10.489Z,-0.82
2023-01-17T20:06:38.605Z,-0.74
2023-01-17T20:09:07.353Z,-0.75
2023-01-17T20:11:35.517Z,-0.76
2023-01-17T20:14:06.490Z,-0.81
2023-01-17T20:16:37.224Z,-0.79
2023-01-17T20:19:06.622Z,-0.82
2023-01-17T20:21:34.656Z,-0.81
2023-01-17T20:24:04.420Z,-0.77
2023-01-17T20:26:38.389Z,-0.77
2023-01-17T20:29:10.713Z,-0.73
2023-01-17T20:31:39.864Z,-0.69
2023-01-17T20:34:10.056Z,-0.63
2023-01-17T20:36:39.108Z,-0.56
2023-01-17T20:39:08.852Z,-0.53
2023-01-17T20:41:38.400Z,-0.52
2023-01-17T20:44:12.219Z,-0.47
2023-01-17T20:46:41.853Z,-0.47
2023-01-17T20:49:15.241Z,-0.47
2023-01-17T20:51:44.407Z,-0.42
2023-01-17T20:54:18.374Z,-0.40
2023-01-17T20:56:47.572Z,-0.38
2023-01-17T20:59:19.834Z,-0.37
2023-01-17T21:01:48.546Z,-0.41
2023-01-17T21:04:18.016Z,-0.46
2023-01-17T21:06:46.115Z,-0.53
2023-01-17T21:09:17.270Z,-0.60
2023-01-17T21:11:45.441Z,-0.63
2023-01-17T21:14:21.674Z,-0.69
2023-01-17T21:16:50.424Z,-0.74
2023-01-17T21:19:18.544Z,-0.80
2023-01-17T21:21:48.585Z,-0.83
2023-01-17T21:24:22.125Z,-0.76
2023-01-17T21:26:51.745Z,-0.67
2023-01-17T21:29:23.340Z,-0.63
2023-01-17T21:31:53.951Z,-0.60
2023-01-17T21:34:24.584Z,-0.63
2023-01-17T21:36:53.455Z,-0.69
2023-01-17T21:39:21.720Z,-0.76
2023-01-17T21:41:51.020Z,-0.85
2023-01-17T21:44:23.019Z,-0.95
2023-01-17T21:46:55.851Z,-1.00
2023-01-17T21:49:24.681Z,-1.02
2023-01-17T21:52:10.045Z,-0.91
2023-01-17T21:54:55.634Z,-0.86
2023-01-17T21:57:41.425Z,-0.78
2023-01-17T22:00:14.482Z,-0.67
2023-01-17T22:02:43.346Z,-0.67
2023-01-17T22:05:11.640Z,-0.54
2023-01-17T22:07:40.246Z,-0.51
2023-01-17T22:10:09.202Z,-0.56
2023-01-17T22:12:38.066Z,-0.63
2023-01-17T22:15:07.549Z,-0.62
2023-01-17T22:17:38.399Z,-0.58
2023-01-17T22:20:11.619Z,-0.48
2023-01-17T22:22:39.879Z,-0.51
2023-01-17T22:25:09.187Z,-0.51
2023-01-17T22:27:37.303Z,-0.50
2023-01-17T22:30:06.837Z,-0.51
2023-01-17T22:32:36.260Z,-0.50
2023-01-17T22:35:06.734Z,-0.55
2023-01-17T22:37:35.888Z,-0.49
2023-01-17T22:40:05.985Z,-0.46
2023-01-17T22:42:35.292Z,-0.50
2023-01-17T22:45:03.973Z,-0.50
2023-01-17T22:47:33.203Z,-0.52
2023-01-17T22:50:03.086Z,-0.54
2023-01-17T22:52:31.604Z,-0.56
2023-01-17T22:54:59.971Z,-0.61
2023-01-17T22:57:28.063Z,-0.66
2023-01-17T22:59:56.506Z,-0.69
2023-01-17T23:02:24.623Z,-0.69
2023-01-17T23:04:52.781Z,-0.72
2023-01-17T23:07:27.114Z,-0.72
2023-01-17T23:09:55.098Z,-0.74
2023-01-17T23:12:23.124Z,-0.74
2023-01-17T23:15:08.757Z,-0.74
2023-01-17T23:17:54.145Z,-0.70
2023-01-17T23:20:22.498Z,-0.71
2023-01-17T23:22:51.936Z,-0.67
2023-01-17T23:25:20.356Z,-0.61
2023-01-17T23:28:06.084Z,-0.56
2023-01-17T23:30:38.722Z,-0.51
2023-01-17T23:33:10.534Z,-0.40
2023-01-17T23:35:42.057Z,-0.34
2023-01-17T23:38:30.033Z,-0.26
2023-01-17T23:41:20.230Z,-0.18
2023-01-17T23:43:52.521Z,-0.06
2023-01-17T23:46:20.905Z,-0.01
2023-01-17T23:48:49.322Z,0.03
2023-01-17T23:51:17.437Z,0.01
2023-01-17T23:53:47.127Z,0.05
2023-01-17T23:56:19.542Z,0.07
2023-01-17T23:58:47.773Z,0.01
